createdAt,value
2023-02-11T00:00:17.629Z,44.70
2023-02-11T00:02:46.141Z,44.05
2023-02-11T00:05:14.114Z,46.85
2023-02-11T00:07:40.609Z,43.92
2023-02-11T00:10:07.064Z,43.72
2023-02-11T00:12:33.450Z,47.17
2023-02-11T00:14:59.798Z,43.97
2023-02-11T00:17:26.322Z,44.30
2023-02-11T00:19:52.686Z,43.10
2023-02-11T00:22:19.387Z,41.80
2023-02-11T00:24:45.734Z,41.17
2023-02-11T00:27:12.194Z,44.65
2023-02-11T00:29:38.562Z,45.70
2023-02-11T00:32:04.984Z,45.00
2023-02-11T00:34:31.334Z,45.38
2023-02-11T00:36:57.703Z,42.80
2023-02-11T00:39:24.203Z,42.50
2023-02-11T00:41:50.546Z,44.58
2023-02-11T00:44:16.952Z,42.88
2023-02-11T00:46:43.329Z,47.35
2023-02-11T00:49:09.711Z,40.03
2023-02-11T00:51:36.465Z,43.83
2023-02-11T00:54:02.909Z,42.50
2023-02-11T00:56:29.257Z,43.78
2023-02-11T00:58:55.595Z,45.42
2023-02-11T01:01:22.055Z,42.85
2023-02-11T01:03:48.461Z,44.15
2023-02-11T01:06:14.932Z,40.20
2023-02-11T01:08:41.653Z,42.63
2023-02-11T01:11:07.942Z,42.10
2023-02-11T01:13:34.546Z,44.90
2023-02-11T01:16:00.965Z,46.17
2023-02-11T01:18:27.314Z,44.55
2023-02-11T01:20:53.704Z,46.38
2023-02-11T01:23:20.052Z,46.15
2023-02-11T01:25:46.465Z,45.72
2023-02-11T01:28:12.843Z,43.22
2023-02-11T01:30:39.194Z,44.22
2023-02-11T01:33:05.961Z,44.42
2023-02-11T01:35:32.235Z,42.75
2023-02-11T01:37:58.900Z,40.08
2023-02-11T01:40:25.324Z,42.78
2023-02-11T01:42:51.694Z,44.25
2023-02-11T01:45:18.138Z,41.30
2023-02-11T01:47:44.516Z,41.72
2023-02-11T01:50:10.860Z,38.38
2023-02-11T01:52:37.168Z,43.85
2023-02-11T01:55:03.542Z,39.05
2023-02-11T01:57:29.937Z,43.92
2023-02-11T01:59:56.518Z,41.65
2023-02-11T02:02:22.956Z,41.28
2023-02-11T02:04:50.523Z,40.90
2023-02-11T02:07:16.930Z,41.67
2023-02-11T02:09:43.807Z,44.90
2023-02-11T02:12:10.138Z,39.25
2023-02-11T02:14:37.191Z,42.33
2023-02-11T02:17:03.914Z,42.20
2023-02-11T02:19:30.999Z,38.45
2023-02-11T02:21:59.254Z,39.40
2023-02-11T02:24:25.629Z,41.33
2023-02-11T02:26:52.388Z,41.33
2023-02-11T02:29:19.101Z,38.15
2023-02-11T02:31:45.480Z,41.00
2023-02-11T02:34:11.862Z,39.85
2023-02-11T02:36:38.633Z,41.65
2023-02-11T02:39:04.971Z,38.85
2023-02-11T02:41:31.307Z,40.13
2023-02-11T02:43:57.698Z,41.20
2023-02-11T02:46:24.133Z,40.80
2023-02-11T02:48:50.463Z,41.83
2023-02-11T02:51:16.864Z,41.72
2023-02-11T02:53:43.349Z,40.45
2023-02-11T02:56:09.750Z,41.75
2023-02-11T02:58:36.122Z,41.50
2023-02-11T03:01:02.657Z,39.10
2023-02-11T03:03:29.201Z,36.65
2023-02-11T03:05:55.624Z,40.78
2023-02-11T03:08:22.007Z,39.58
2023-02-11T03:10:48.352Z,42.22
2023-02-11T03:13:14.888Z,39.28
2023-02-11T03:15:41.448Z,40.58
2023-02-11T03:18:07.899Z,43.08
2023-02-11T03:20:34.363Z,41.28
2023-02-11T03:23:00.884Z,41.75
2023-02-11T03:25:27.699Z,38.85
2023-02-11T03:27:54.104Z,39.97
2023-02-11T03:30:20.591Z,43.67
2023-02-11T03:32:47.082Z,38.75
2023-02-11T03:35:13.458Z,39.28
2023-02-11T03:37:39.977Z,37.33
2023-02-11T03:40:06.458Z,38.47
2023-02-11T03:42:33.022Z,39.75
2023-02-11T03:44:59.436Z,40.42
2023-02-11T03:47:25.849Z,39.13
2023-02-11T03:49:52.443Z,38.20
2023-02-11T03:52:18.930Z,39.90
2023-02-11T03:54:45.282Z,39.60
2023-02-11T03:57:11.645Z,38.75
2023-02-11T03:59:38.218Z,40.50
2023-02-11T04:02:04.906Z,39.25
2023-02-11T04:04:31.214Z,38.78
2023-02-11T04:06:57.585Z,38.70
2023-02-11T04:09:24.028Z,40.00
2023-02-11T04:11:50.478Z,40.55
2023-02-11T04:14:16.921Z,38.97
2023-02-11T04:16:43.289Z,40.72
2023-02-11T04:19:09.808Z,41.15
2023-02-11T04:21:36.178Z,41.45
2023-02-11T04:24:02.524Z,42.10
2023-02-11T04:26:28.945Z,37.70
2023-02-11T04:28:55.231Z,39.45
2023-02-11T04:31:21.729Z,39.88
2023-02-11T04:33:48.202Z,40.70
2023-02-11T04:36:14.571Z,40.45
2023-02-11T04:38:41.428Z,42.47
2023-02-11T04:41:07.851Z,40.83
2023-02-11T04:43:34.188Z,39.25
2023-02-11T04:46:00.611Z,40.30
2023-02-11T04:48:27.021Z,40.13
2023-02-11T04:50:53.350Z,41.70
2023-02-11T04:53:19.792Z,39.38
2023-02-11T04:55:46.684Z,40.70
2023-02-11T04:58:13.201Z,39.35
2023-02-11T05:00:39.684Z,41.47
2023-02-11T05:03:06.051Z,41.40
2023-02-11T05:05:32.904Z,44.08
2023-02-11T05:07:59.225Z,42.25
2023-02-11T05:10:25.705Z,40.65
2023-02-11T05:12:54.653Z,42.00
2023-02-11T05:15:22.041Z,42.08
2023-02-11T05:17:49.290Z,41.15
2023-02-11T05:20:15.613Z,39.53
2023-02-11T05:22:42.268Z,40.75
2023-02-11T05:25:08.606Z,40.72
2023-02-11T05:27:35.007Z,44.13
2023-02-11T05:30:01.419Z,42.92
2023-02-11T05:32:28.199Z,40.08
2023-02-11T05:34:54.961Z,40.67
2023-02-11T05:37:21.357Z,42.67
2023-02-11T05:39:47.773Z,43.20
2023-02-11T05:42:14.100Z,42.40
2023-02-11T05:44:40.879Z,39.85
2023-02-11T05:47:07.179Z,44.72
2023-02-11T05:49:33.590Z,41.30
2023-02-11T05:51:59.973Z,39.67
2023-02-11T05:54:26.523Z,42.35
2023-02-11T05:56:52.932Z,43.67
2023-02-11T05:59:19.380Z,42.70
2023-02-11T06:01:45.793Z,41.88
2023-02-11T06:04:12.184Z,42.92
2023-02-11T06:06:38.901Z,40.10
2023-02-11T06:09:05.406Z,43.72
2023-02-11T06:11:31.801Z,44.95
2023-02-11T06:13:58.258Z,43.90
2023-02-11T06:16:24.708Z,43.65
2023-02-11T06:18:51.158Z,41.60
2023-02-11T06:21:17.490Z,42.75
2023-02-11T06:23:43.818Z,43.90
2023-02-11T06:26:10.202Z,44.58
2023-02-11T06:28:38.775Z,43.05
2023-02-11T06:31:07.195Z,42.90
2023-02-11T06:33:33.645Z,44.45
2023-02-11T06:36:00.000Z,45.55
2023-02-11T06:38:26.926Z,39.70
2023-02-11T06:40:53.492Z,46.00
2023-02-11T06:43:19.880Z,42.63
2023-02-11T06:45:46.528Z,42.90
2023-02-11T06:48:13.294Z,44.20
2023-02-11T06:50:39.987Z,45.53
2023-02-11T06:53:06.353Z,42.97
2023-02-11T06:55:32.790Z,41.05
2023-02-11T06:57:59.137Z,46.65
2023-02-11T07:00:25.494Z,39.90
2023-02-11T07:02:52.053Z,46.40
2023-02-11T07:05:18.602Z,45.20
2023-02-11T07:07:45.281Z,47.65
2023-02-11T07:10:11.691Z,44.58
2023-02-11T07:12:38.311Z,44.60
2023-02-11T07:15:04.707Z,44.90
2023-02-11T07:17:31.091Z,46.45
2023-02-11T07:19:57.474Z,42.83
2023-02-11T07:22:23.920Z,46.97
2023-02-11T07:24:50.330Z,45.92
2023-02-11T07:27:17.100Z,48.05
2023-02-11T07:29:43.529Z,43.58
2023-02-11T07:32:10.034Z,46.05
2023-02-11T07:34:36.784Z,46.50
2023-02-11T07:37:03.387Z,43.58
2023-02-11T07:39:29.739Z,47.15
2023-02-11T07:41:56.354Z,44.40
2023-02-11T07:44:22.667Z,48.55
2023-02-11T07:46:49.384Z,48.20
2023-02-11T07:49:15.980Z,44.60
2023-02-11T07:51:42.609Z,43.25
2023-02-11T07:54:09.014Z,48.35
2023-02-11T07:56:35.709Z,45.42
2023-02-11T07:59:02.332Z,48.50
2023-02-11T08:01:28.931Z,45.58
2023-02-11T08:03:55.460Z,47.38
2023-02-11T08:06:22.009Z,49.53
2023-02-11T08:08:48.321Z,45.38
2023-02-11T08:11:14.995Z,46.15
2023-02-11T08:13:41.528Z,49.28
2023-02-11T08:16:07.958Z,47.47
2023-02-11T08:18:34.360Z,47.45
2023-02-11T08:21:00.740Z,49.15
2023-02-11T08:23:27.036Z,44.22
2023-02-11T08:25:53.379Z,49.65
2023-02-11T08:28:19.768Z,48.00
2023-02-11T08:30:46.404Z,46.95
2023-02-11T08:33:13.220Z,47.95
2023-02-11T08:35:39.642Z,45.80
2023-02-11T08:38:06.145Z,47.00
2023-02-11T08:40:32.823Z,48.45
2023-02-11T08:42:59.184Z,50.08
2023-02-11T08:45:25.564Z,51.90
2023-02-11T08:47:52.080Z,52.80
2023-02-11T08:50:18.480Z,51.78
2023-02-11T08:52:44.868Z,46.75
2023-02-11T08:55:11.296Z,49.47
2023-02-11T08:57:37.904Z,49.65
2023-02-11T09:00:04.278Z,49.92
2023-02-11T09:02:30.704Z,48.60
2023-02-11T09:04:57.131Z,51.60
2023-02-11T09:07:23.444Z,52.28
2023-02-11T09:09:49.859Z,50.78
2023-02-11T09:12:16.385Z,49.22
2023-02-11T09:14:42.770Z,49.95
2023-02-11T09:17:09.319Z,50.40
2023-02-11T09:19:36.037Z,45.90
2023-02-11T09:22:02.434Z,46.08
2023-02-11T09:24:29.217Z,47.28
2023-02-11T09:26:55.637Z,47.92
2023-02-11T09:29:21.994Z,46.53
2023-02-11T09:31:48.431Z,49.13
2023-02-11T09:34:14.901Z,51.75
2023-02-11T09:36:41.607Z,47.92
2023-02-11T09:39:08.020Z,47.00
2023-02-11T09:41:34.369Z,48.55
2023-02-11T09:44:00.715Z,48.08
2023-02-11T09:46:27.082Z,46.17
2023-02-11T09:48:53.687Z,45.70
2023-02-11T09:51:20.063Z,45.55
2023-02-11T09:53:46.454Z,47.08
2023-02-11T09:56:12.951Z,44.70
2023-02-11T09:58:39.506Z,46.88
2023-02-11T10:01:05.944Z,46.53
2023-02-11T10:03:32.479Z,46.58
2023-02-11T10:05:58.972Z,46.15
2023-02-11T10:08:25.509Z,46.00
2023-02-11T10:10:52.294Z,45.53
2023-02-11T10:13:19.399Z,47.55
2023-02-11T10:15:46.034Z,47.95
2023-02-11T10:18:12.469Z,45.92
2023-02-11T10:20:39.346Z,45.47
2023-02-11T10:23:05.739Z,47.03
2023-02-11T10:25:32.045Z,42.40
2023-02-11T10:27:58.571Z,44.53
2023-02-11T10:30:24.985Z,49.67
2023-02-11T10:32:51.419Z,43.28
2023-02-11T10:35:17.799Z,44.15
2023-02-11T10:37:44.665Z,43.92
2023-02-11T10:40:11.542Z,43.05
2023-02-11T10:42:38.319Z,44.55
2023-02-11T10:45:04.737Z,45.05
2023-02-11T10:47:31.148Z,42.65
2023-02-11T10:49:57.513Z,43.45
2023-02-11T10:52:23.871Z,44.38
2023-02-11T10:54:50.189Z,39.50
2023-02-11T10:57:16.638Z,45.10
2023-02-11T10:59:43.584Z,45.13
2023-02-11T11:02:09.940Z,41.65
2023-02-11T11:04:37.167Z,44.53
2023-02-11T11:07:03.578Z,40.10
2023-02-11T11:09:30.004Z,44.63
2023-02-11T11:11:56.611Z,41.08
2023-02-11T11:14:22.969Z,44.70
2023-02-11T11:16:50.137Z,44.25
2023-02-11T11:19:17.254Z,47.35
2023-02-11T11:21:43.730Z,48.75
2023-02-11T11:24:10.298Z,53.28
2023-02-11T11:26:37.663Z,52.03
2023-02-11T11:29:04.027Z,50.83
2023-02-11T11:31:30.632Z,50.67
2023-02-11T11:33:57.146Z,59.03
2023-02-11T11:36:23.631Z,58.03
2023-02-11T11:38:50.082Z,56.20
2023-02-11T11:41:16.409Z,58.22
2023-02-11T11:43:43.246Z,59.78
2023-02-11T11:46:09.780Z,60.00
2023-02-11T11:48:36.140Z,63.15
2023-02-11T11:51:02.928Z,63.92
2023-02-11T11:53:29.301Z,59.97
2023-02-11T11:55:58.630Z,68.65
2023-02-11T11:58:25.982Z,67.55
2023-02-11T12:00:52.703Z,68.25
2023-02-11T12:03:19.749Z,75.97
2023-02-11T12:05:46.175Z,66.50
2023-02-11T12:08:13.047Z,64.88
2023-02-11T12:10:39.415Z,60.03
2023-02-11T12:13:05.798Z,68.10
2023-02-11T12:15:32.103Z,66.40
2023-02-11T12:17:58.498Z,66.28
2023-02-11T12:20:26.545Z,64.47
2023-02-11T12:22:52.893Z,58.97
2023-02-11T12:25:19.343Z,147.18
2023-02-11T12:27:46.580Z,296.60
2023-02-11T12:30:14.152Z,298.50
2023-02-11T12:32:42.218Z,273.15
2023-02-11T12:35:08.616Z,241.93
2023-02-11T12:37:35.068Z,222.85
2023-02-11T12:40:01.592Z,210.60
2023-02-11T12:42:28.688Z,196.43
2023-02-11T12:44:55.256Z,187.60
2023-02-11T12:47:21.663Z,173.15
2023-02-11T12:49:48.341Z,161.15
2023-02-11T12:52:15.206Z,156.30
2023-02-11T12:54:41.819Z,140.43
2023-02-11T12:57:08.548Z,145.43
2023-02-11T12:59:35.242Z,269.52
2023-02-11T13:02:01.762Z,248.95
2023-02-11T13:04:28.434Z,255.10
2023-02-11T13:06:55.200Z,242.95
2023-02-11T13:09:21.584Z,224.80
2023-02-11T13:11:47.914Z,221.35
2023-02-11T13:14:14.780Z,275.67
2023-02-11T13:16:41.431Z,306.70
2023-02-11T13:19:08.120Z,309.35
2023-02-11T13:21:34.497Z,297.73
2023-02-11T13:24:00.879Z,281.70
2023-02-11T13:26:27.550Z,270.90
2023-02-11T13:28:53.936Z,251.43
2023-02-11T13:31:20.622Z,237.43
2023-02-11T13:33:47.831Z,228.27
2023-02-11T13:36:14.357Z,213.80
2023-02-11T13:38:41.468Z,202.32
2023-02-11T13:41:08.257Z,196.75
2023-02-11T13:43:34.791Z,182.57
2023-02-11T13:46:01.362Z,175.98
2023-02-11T13:48:27.829Z,168.82
2023-02-11T13:50:54.203Z,211.50
2023-02-11T13:53:20.855Z,273.48
2023-02-11T13:55:47.366Z,292.50
2023-02-11T13:58:14.520Z,284.52
2023-02-11T14:00:40.871Z,259.45
2023-02-11T14:03:07.264Z,252.70
2023-02-11T14:05:33.675Z,233.23
2023-02-11T14:08:00.120Z,227.63
2023-02-11T14:10:27.372Z,210.55
2023-02-11T14:12:53.763Z,187.23
2023-02-11T14:15:20.771Z,175.45
2023-02-11T14:17:47.138Z,164.25
2023-02-11T14:20:13.906Z,236.32
2023-02-11T14:22:40.206Z,275.00
2023-02-11T14:25:07.076Z,269.60
2023-02-11T14:27:33.641Z,262.92
2023-02-11T14:30:00.037Z,244.90
2023-02-11T14:32:26.448Z,236.15
2023-02-11T14:34:52.787Z,225.70
2023-02-11T14:37:19.241Z,217.50
2023-02-11T14:39:45.526Z,208.93
2023-02-11T14:42:11.816Z,277.33
2023-02-11T14:44:38.851Z,351.73
2023-02-11T14:47:05.241Z,292.67
2023-02-11T14:49:32.074Z,283.08
2023-02-11T14:51:58.480Z,281.00
2023-02-11T15:07:14.731Z,239.18
2023-02-11T15:09:41.248Z,242.05
2023-02-11T15:12:07.664Z,240.75
2023-02-11T15:14:34.369Z,241.82
2023-02-11T15:17:00.742Z,244.93
2023-02-11T15:19:27.176Z,248.05
2023-02-11T15:21:53.675Z,251.65
2023-02-11T15:24:20.380Z,294.65
2023-02-11T15:26:46.736Z,386.60
2023-02-11T15:29:13.132Z,400.80
2023-02-11T15:31:40.167Z,379.90
2023-02-11T15:34:06.874Z,371.48
2023-02-11T15:36:33.244Z,367.38
2023-02-11T15:38:59.839Z,360.95
2023-02-11T15:41:26.185Z,358.05
2023-02-11T15:43:52.666Z,357.35
2023-02-11T15:46:19.191Z,353.55
2023-02-11T15:48:45.595Z,350.38
2023-02-11T15:51:11.939Z,345.58
2023-02-11T15:53:38.571Z,343.63
2023-02-11T15:56:05.036Z,333.95
2023-02-11T15:58:31.752Z,336.05
2023-02-11T16:00:58.084Z,322.90
2023-02-11T16:03:24.861Z,335.55
2023-02-11T16:05:51.376Z,393.45
2023-02-11T16:08:17.825Z,433.58
2023-02-11T16:10:44.226Z,445.42
2023-02-11T16:13:11.152Z,439.85
2023-02-11T16:15:37.658Z,430.65
2023-02-11T16:18:04.089Z,416.27
2023-02-11T16:20:30.603Z,406.73
2023-02-11T16:22:57.173Z,395.55
2023-02-11T16:25:23.543Z,392.15
2023-02-11T16:27:50.048Z,382.08
2023-02-11T16:30:16.620Z,372.63
2023-02-11T16:32:43.016Z,360.13
2023-02-11T16:35:09.530Z,347.23
2023-02-11T16:37:35.870Z,342.02
2023-02-11T16:40:02.552Z,385.77
2023-02-11T16:42:28.930Z,442.20
2023-02-11T16:44:55.684Z,440.98
2023-02-11T16:47:22.224Z,428.13
2023-02-11T16:49:48.626Z,429.95
2023-02-11T16:52:15.198Z,396.00
2023-02-11T16:54:41.486Z,399.25
2023-02-11T16:57:08.019Z,384.48
2023-02-11T16:59:34.524Z,377.33
2023-02-11T17:02:00.916Z,366.67
2023-02-11T17:04:27.537Z,354.50
2023-02-11T17:06:55.998Z,340.00
2023-02-11T17:11:50.929Z,312.00
2023-02-11T17:14:17.741Z,390.73
2023-02-11T17:16:44.814Z,440.58
2023-02-11T17:19:11.832Z,457.00
2023-02-11T17:21:38.297Z,461.05
2023-02-11T17:24:05.245Z,448.23
2023-02-11T17:26:32.016Z,436.02
2023-02-11T17:28:58.441Z,427.25
2023-02-11T17:31:24.919Z,418.85
2023-02-11T17:33:51.387Z,407.80
2023-02-11T17:36:18.391Z,404.60
2023-02-11T17:38:45.087Z,388.33
2023-02-11T17:41:12.569Z,377.23
2023-02-11T17:43:39.810Z,371.98
2023-02-11T17:46:06.518Z,353.70
2023-02-11T17:48:33.462Z,350.38
2023-02-11T17:51:00.187Z,338.25
2023-02-11T17:53:26.716Z,329.75
2023-02-11T17:55:53.434Z,333.70
2023-02-11T17:58:19.988Z,317.52
2023-02-11T18:00:46.518Z,309.35
2023-02-11T18:03:13.176Z,306.10
2023-02-11T18:05:39.715Z,297.13
2023-02-11T18:08:06.104Z,285.88
2023-02-11T18:10:33.149Z,286.77
2023-02-11T18:12:59.592Z,271.52
2023-02-11T18:15:26.524Z,264.88
2023-02-11T18:17:52.984Z,257.55
2023-02-11T18:20:19.604Z,248.68
2023-02-11T18:22:46.204Z,246.48
2023-02-11T18:25:13.675Z,236.52
2023-02-11T18:27:40.628Z,230.73
2023-02-11T18:30:07.529Z,227.60
2023-02-11T18:32:34.006Z,222.15
2023-02-11T18:35:00.569Z,220.25
2023-02-11T18:37:27.794Z,211.27
2023-02-11T18:39:54.525Z,208.32
2023-02-11T18:42:20.935Z,199.95
2023-02-11T18:44:47.717Z,196.95
2023-02-11T18:47:14.567Z,194.05
2023-02-11T18:49:41.058Z,187.38
2023-02-11T18:52:07.809Z,180.07
2023-02-11T18:54:34.360Z,178.38
2023-02-11T18:57:01.426Z,176.00
2023-02-11T18:59:28.200Z,165.25
2023-02-11T19:01:54.734Z,170.70
2023-02-11T19:04:21.532Z,162.70
2023-02-11T19:06:48.119Z,159.93
2023-02-11T19:09:14.590Z,158.23
2023-02-11T19:11:40.998Z,153.00
2023-02-11T19:14:07.849Z,152.82
2023-02-11T19:16:34.232Z,146.23
2023-02-11T19:19:01.380Z,159.07
2023-02-11T19:21:27.838Z,199.38
2023-02-11T19:23:54.704Z,219.07
2023-02-11T19:26:21.195Z,267.17
2023-02-11T19:28:47.951Z,318.80
2023-02-11T19:31:14.632Z,355.02
2023-02-11T19:33:41.309Z,356.75
2023-02-11T19:36:08.030Z,331.40
2023-02-11T19:38:34.762Z,312.95
2023-02-11T19:41:01.255Z,286.63
2023-02-11T19:43:27.646Z,271.20
2023-02-11T19:45:55.181Z,249.48
2023-02-11T19:48:22.253Z,275.00
2023-02-11T19:50:48.789Z,430.75
2023-02-11T19:53:15.214Z,467.08
2023-02-11T19:55:41.654Z,504.63
2023-02-11T19:58:08.487Z,567.55
2023-02-11T20:00:34.973Z,578.00
2023-02-11T20:03:01.471Z,594.15
2023-02-11T20:05:28.086Z,697.35
2023-02-11T20:07:54.852Z,724.50
2023-02-11T20:10:21.226Z,673.13
2023-02-11T20:12:47.908Z,641.63
2023-02-11T20:15:14.341Z,604.42
2023-02-11T20:17:41.534Z,587.85
2023-02-11T20:20:08.361Z,557.67
2023-02-11T20:22:35.046Z,531.45
2023-02-11T20:25:01.560Z,526.85
2023-02-11T20:27:28.176Z,497.58
2023-02-11T20:29:54.773Z,486.63
2023-02-11T20:32:21.331Z,476.02
2023-02-11T20:34:48.032Z,461.15
2023-02-11T20:37:14.570Z,452.42
2023-02-11T20:39:41.133Z,467.60
2023-02-11T20:42:07.855Z,514.72
2023-02-11T20:44:34.408Z,475.58
2023-02-11T20:47:00.834Z,463.88
2023-02-11T20:49:27.317Z,453.83
2023-02-11T20:51:54.184Z,442.42
2023-02-11T20:54:20.871Z,424.27
2023-02-11T20:56:48.271Z,414.67
2023-02-11T20:59:14.872Z,404.65
2023-02-11T21:01:41.618Z,383.27
2023-02-11T21:04:08.214Z,371.02
2023-02-11T21:06:34.812Z,354.63
2023-02-11T21:09:01.598Z,342.80
2023-02-11T21:11:28.092Z,329.85
2023-02-11T21:13:54.579Z,320.63
2023-02-11T21:16:21.189Z,312.25
2023-02-11T21:18:47.834Z,294.10
2023-02-11T21:21:14.452Z,277.23
2023-02-11T21:23:41.274Z,267.25
2023-02-11T21:26:07.664Z,262.23
2023-02-11T21:28:34.254Z,254.55
2023-02-11T21:31:01.180Z,242.65
2023-02-11T21:33:28.510Z,235.02
2023-02-11T21:35:56.207Z,308.65
2023-02-11T21:38:23.374Z,338.63
2023-02-11T21:40:50.250Z,313.45
2023-02-11T21:43:17.514Z,287.02
2023-02-11T21:45:44.256Z,274.77
2023-02-11T21:48:10.908Z,258.75
2023-02-11T21:50:37.698Z,252.93
2023-02-11T21:53:06.926Z,240.90
2023-02-11T21:55:33.976Z,233.43
2023-02-11T21:58:00.557Z,226.02
2023-02-11T22:00:27.413Z,208.77
2023-02-11T22:02:53.895Z,205.38
2023-02-11T22:05:20.819Z,322.70
2023-02-11T22:07:47.420Z,394.13
2023-02-11T22:10:14.371Z,405.85
2023-02-11T22:12:40.759Z,377.33
2023-02-11T22:15:07.616Z,353.73
2023-02-11T22:17:34.461Z,335.13
2023-02-11T22:20:01.071Z,321.55
2023-02-11T22:22:28.028Z,308.95
2023-02-11T22:24:54.820Z,287.10
2023-02-11T22:27:21.590Z,337.42
2023-02-11T22:29:48.071Z,463.92
2023-02-11T22:32:15.188Z,488.27
2023-02-11T22:34:41.882Z,464.08
2023-02-11T22:37:08.578Z,444.52
2023-02-11T22:39:35.206Z,422.02
2023-02-11T22:42:01.807Z,399.95
2023-02-11T22:44:28.173Z,370.95
2023-02-11T22:46:54.772Z,350.20
2023-02-11T22:49:21.432Z,428.50
2023-02-11T22:51:47.960Z,452.27
2023-02-11T22:54:14.396Z,440.50
2023-02-11T22:56:41.009Z,474.25
2023-02-11T22:59:07.334Z,480.90
2023-02-11T23:01:33.876Z,446.67
2023-02-11T23:04:01.036Z,430.08
2023-02-11T23:06:28.702Z,407.38
2023-02-11T23:08:55.131Z,390.88
2023-02-11T23:11:21.861Z,378.45
2023-02-11T23:13:48.277Z,356.63
2023-02-11T23:16:15.014Z,351.98
2023-02-11T23:18:41.608Z,330.15
2023-02-11T23:21:11.389Z,309.70
2023-02-11T23:26:05.429Z,297.52
2023-02-11T23:28:32.398Z,415.45
2023-02-11T23:30:59.353Z,450.42
2023-02-11T23:33:26.004Z,401.45
2023-02-11T23:35:53.594Z,416.25
2023-02-11T23:38:20.509Z,390.48
2023-02-11T23:40:47.164Z,288.55
2023-02-11T23:43:13.678Z,273.27
2023-02-11T23:45:40.324Z,257.58
2023-02-11T23:48:06.930Z,244.80
2023-02-11T23:50:33.469Z,237.43
2023-02-11T23:52:59.910Z,230.18
2023-02-11T23:55:27.407Z,239.32
2023-02-11T23:57:53.920Z,227.98
